Time;durP1;ratioP1;P1;durP2;ratioP2;P2;SDS_P1;SDS_P2;PMS_P1;PMS_P2;Temp;Humidity;BMP_temperature;BMP_pressure;BME280_temperature;BME280_humidity;BME280_pressure;Samples;Min_cycle;Max_cycle;Signal;HPM_P1;HPM_P2
2024/02/06 00:00:22;;;;;;;8.85;2.05;;;;;;;;;;6145326;23;20100;-61
2024/02/06 00:03:09;;;;;;;11.50;2.90;;;;;;;;;;6143254;23;20022;-60
2024/02/06 00:06:03;;;;;;;7.70;1.85;;;;;;;;;;6143616;23;20389;-62
2024/02/06 00:08:50;;;;;;;11.50;2.28;;;;;;;;;;6145132;23;20103;-63
2024/02/06 00:11:44;;;;;;;5.22;1.65;;;;;;;;;;6146054;23;20022;-63
2024/02/06 00:14:31;;;;;;;12.57;2.80;;;;;;;;;;6146578;23;20057;-63
2024/02/06 00:17:38;;;;;;;8.52;2.00;;;;;;;;;;6146052;23;20030;-60
2024/02/06 00:20:12;;;;;;;8.52;2.10;;;;;;;;;;6146017;23;20021;-59
2024/02/06 00:22:46;;;;;;;4.97;1.70;;;;;;;;;;6143769;23;20021;-60
2024/02/06 00:25:13;;;;;;;10.27;2.10;;;;;;;;;;6143660;23;20025;-59
2024/02/06 00:27:41;;;;;;;;;;;;;;;;;;6142088;23;20096;-60
2024/02/06 00:30:15;;;;;;;5.28;1.80;;;;;;;;;;6143635;23;19983;-60
2024/02/06 00:32:43;;;;;;;6.30;1.85;;;;;;;;;;6144909;23;20036;-62
2024/02/06 00:35:17;;;;;;;10.52;2.40;;;;;;;;;;6144800;23;20473;-62
2024/02/06 00:37:45;;;;;;;;;;;;;;;;;;6144314;23;20029;-62
2024/02/06 00:40:19;;;;;;;5.40;1.90;;;;;;;;;;6143577;23;19928;-62
2024/02/06 00:42:52;;;;;;;11.70;2.40;;;;;;;;;;6144724;23;20248;-47
2024/02/06 00:45:19;;;;;;;16.88;2.30;;;;;;;;;;6144539;23;20025;-63
2024/02/06 00:47:53;;;;;;;8.68;2.20;;;;;;;;;;6143412;23;20444;-63
2024/02/06 00:50:21;;;;;;;10.02;2.20;;;;;;;;;;6143405;23;20323;-62
2024/02/06 00:52:48;;;;;;;6.68;2.47;;;;;;;;;;6142308;23;20041;-62
2024/02/06 00:55:22;;;;;;;7.38;1.98;;;;;;;;;;6143648;23;20037;-63
2024/02/06 00:57:49;;;;;;;6.55;1.63;;;;;;;;;;6140972;23;20154;-62
2024/02/06 01:00:17;;;;;;;13.07;2.03;;;;;;;;;;6144075;23;20032;-63
2024/02/06 01:02:51;;;;;;;12.98;2.47;;;;;;;;;;6143512;23;20028;-61
2024/02/06 01:05:18;;;;;;;4.95;1.77;;;;;;;;;;6145371;23;20029;-62
2024/02/06 01:07:52;;;;;;;8.38;1.95;;;;;;;;;;6140773;23;20081;-62
2024/02/06 01:10:19;;;;;;;7.53;1.95;;;;;;;;;;6144494;23;20032;-51
2024/02/06 01:12:47;;;;;;;6.93;2.90;;;;;;;;;;6142048;23;20034;-56
2024/02/06 01:15:21;;;;;;;7.25;2.28;;;;;;;;;;6144118;23;20053;-62
2024/02/06 01:17:55;;;;;;;;;;;;;;;;;;6144024;23;20025;-63
2024/02/06 01:20:29;;;;;;;12.20;2.33;;;;;;;;;;6144114;23;19925;-63
2024/02/06 01:22:56;;;;;;;6.43;2.28;;;;;;;;;;6142348;23;20091;-63
2024/02/06 01:25:23;;;;;;;7.88;2.83;;;;;;;;;;6142821;23;20399;-62
2024/02/06 01:27:57;;;;;;;6.65;2.28;;;;;;;;;;6142207;23;20029;-63
2024/02/06 01:30:24;;;;;;;;;;;;;;;;;;6145182;23;20116;-60
2024/02/06 01:32:58;;;;;;;8.60;2.15;;;;;;;;;;6143790;23;19979;-60
2024/02/06 01:35:26;;;;;;;9.20;2.20;;;;;;;;;;6145571;23;20022;-60
2024/02/06 01:37:53;;;;;;;5.90;2.17;;;;;;;;;;6143817;23;20030;-60
2024/02/06 01:40:27;;;;;;;8.27;2.20;;;;;;;;;;6144872;23;20084;-57
2024/02/06 01:42:54;;;;;;;7.53;2.30;;;;;;;;;;6143589;23;20558;-59
2024/02/06 01:45:21;;;;;;;5.43;2.53;;;;;;;;;;6143553;23;20031;-57
2024/02/06 01:48:02;;;;;;;9.35;2.33;;;;;;;;;;6145471;23;20029;-58
2024/02/06 01:50:30;;;;;;;8.55;1.98;;;;;;;;;;6145306;23;20068;-58
2024/02/06 01:53:04;;;;;;;7.43;2.20;;;;;;;;;;6143335;23;20029;-59
2024/02/06 01:55:31;;;;;;;8.93;2.03;;;;;;;;;;6144365;23;20483;-58
2024/02/06 01:57:58;;;;;;;;;;;;;;;;;;6143440;23;20249;-55
2024/02/06 02:00:33;;;;;;;6.53;1.92;;;;;;;;;;6144004;23;20179;-57
2024/02/06 02:03:00;;;;;;;11.82;2.13;;;;;;;;;;6145102;23;20479;-56
2024/02/06 02:05:34;;;;;;;12.82;2.25;;;;;;;;;;6146002;23;20022;-57
2024/02/06 02:08:02;;;;;;;6.45;2.38;;;;;;;;;;6141450;23;20021;-53
2024/02/06 02:10:29;;;;;;;;;;;;;;;;;;6146357;23;20522;-59
2024/02/06 02:13:04;;;;;;;8.18;2.15;;;;;;;;;;6144786;23;20249;-60
2024/02/06 02:15:31;;;;;;;10.60;2.30;;;;;;;;;;6144215;23;20108;-60
2024/02/06 02:17:58;;;;;;;7.40;2.35;;;;;;;;;;6144772;23;20029;-60
2024/02/06 02:20:32;;;;;;;9.27;2.20;;;;;;;;;;6146832;23;20021;-60
2024/02/06 02:22:59;;;;;;;12.60;2.50;;;;;;;;;;6144321;23;20053;-60
2024/02/06 02:25:48;;;;;;;6.07;2.50;;;;;;;;;;6146182;23;20029;-55
2024/02/06 02:28:16;;;;;;;9.45;2.42;;;;;;;;;;6142805;23;20025;-57
2024/02/06 02:30:49;;;;;;;5.88;2.28;;;;;;;;;;6144795;23;20029;-55
2024/02/06 02:33:17;;;;;;;6.32;2.40;;;;;;;;;;6145898;23;20032;-56
2024/02/06 02:35:45;;;;;;;6.90;2.30;;;;;;;;;;6147396;23;20026;-62
2024/02/06 02:38:20;;;;;;;9.68;2.30;;;;;;;;;;6144513;23;20037;-56
2024/02/06 02:40:47;;;;;;;9.90;2.50;;;;;;;;;;6144619;23;20030;-60
2024/02/06 02:43:21;;;;;;;6.90;2.30;;;;;;;;;;6120154;23;20467;-60
2024/02/06 02:45:48;;;;;;;8.90;2.25;;;;;;;;;;6143080;23;20021;-60
2024/02/06 02:48:15;;;;;;;7.57;1.85;;;;;;;;;;6145040;23;20404;-60
2024/02/06 02:50:49;;;;;;;9.65;3.25;;;;;;;;;;6146568;23;20136;-60
2024/02/06 02:53:16;;;;;;;13.52;2.83;;;;;;;;;;6145006;23;20029;-60
2024/02/06 02:55:50;;;;;;;13.50;2.47;;;;;;;;;;6146405;23;20032;-51
2024/02/06 02:58:17;;;;;;;10.05;2.15;;;;;;;;;;6143318;23;20029;-52
2024/02/06 03:00:45;;;;;;;11.75;2.90;;;;;;;;;;6144302;23;20021;-45
2024/02/06 03:03:19;;;;;;;7.25;2.55;;;;;;;;;;6145321;23;20472;-48
2024/02/06 03:05:46;;;;;;;8.77;2.78;;;;;;;;;;6145688;23;20036;-49
2024/02/06 03:08:20;;;;;;;8.00;2.60;;;;;;;;;;6144344;23;20213;-47
2024/02/06 03:10:48;;;;;;;8.55;2.38;;;;;;;;;;6145107;23;20051;-49
2024/02/06 03:13:16;;;;;;;;;;;;;;;;;;6143621;23;20128;-47
2024/02/06 03:15:50;;;;;;;9.73;2.33;;;;;;;;;;6143914;23;19928;-49
2024/02/06 03:18:31;;;;;;;10.10;2.17;;;;;;;;;;6143324;23;20475;-52
2024/02/06 03:21:05;;;;;;;11.02;2.72;;;;;;;;;;6144842;23;20028;-53
2024/02/06 03:23:32;;;;;;;7.40;2.90;;;;;;;;;;6143527;23;20087;-54
2024/02/06 03:26:01;;;;;;;9.68;2.60;;;;;;;;;;6145129;23;20022;-52
2024/02/06 03:28:35;;;;;;;8.55;2.35;;;;;;;;;;6142992;23;20475;-52
2024/02/06 03:31:03;;;;;;;8.43;2.30;;;;;;;;;;6144210;23;20033;-49
2024/02/06 03:33:37;;;;;;;15.15;2.58;;;;;;;;;;6143544;23;20022;-62
2024/02/06 03:36:05;;;;;;;;;;;;;;;;;;6144522;23;20108;-57
2024/02/06 03:38:32;;;;;;;10.33;2.47;;;;;;;;;;6146343;23;19920;-57
2024/02/06 03:41:07;;;;;;;8.10;2.20;;;;;;;;;;6145506;23;20024;-58
2024/02/06 03:43:34;;;;;;;10.18;2.03;;;;;;;;;;6144991;23;20037;-59
2024/02/06 03:46:10;;;;;;;4.72;2.25;;;;;;;;;;6144296;23;20088;-55
2024/02/06 03:48:37;;;;;;;9.13;2.25;;;;;;;;;;6145637;23;20026;-58
2024/02/06 03:51:05;;;;;;;7.95;1.85;;;;;;;;;;6120525;23;20025;-58
2024/02/06 03:53:39;;;;;;;9.15;2.28;;;;;;;;;;6144965;23;20029;-57
2024/02/06 03:56:06;;;;;;;5.90;2.15;;;;;;;;;;6146309;23;20061;-57
2024/02/06 03:58:40;;;;;;;7.38;2.15;;;;;;;;;;6144644;23;20033;-56
2024/02/06 04:01:07;;;;;;;4.60;2.20;;;;;;;;;;6144676;23;20036;-62
2024/02/06 04:03:34;;;;;;;;;;;;;;;;;;6147105;23;20025;-53
2024/02/06 04:06:08;;;;;;;7.45;1.73;;;;;;;;;;6147284;23;19924;-57
2024/02/06 04:08:35;;;;;;;10.20;2.05;;;;;;;;;;6143594;23;20031;-55
2024/02/06 04:11:09;;;;;;;9.40;2.15;;;;;;;;;;6144214;23;20022;-57
2024/02/06 04:13:37;;;;;;;4.10;1.95;;;;;;;;;;6144030;23;20030;-56
2024/02/06 04:16:05;;;;;;;12.32;2.60;;;;;;;;;;6143079;23;20029;-57
2024/02/06 04:18:52;;;;;;;8.82;2.53;;;;;;;;;;6144460;23;20498;-55
2024/02/06 04:21:26;;;;;;;7.03;2.78;;;;;;;;;;6146541;23;20068;-63
2024/02/06 04:24:00;;;;;;;9.60;2.20;;;;;;;;;;6145146;23;20609;-62
2024/02/06 04:26:28;;;;;;;7.30;2.60;;;;;;;;;;6144067;23;20088;-62
2024/02/06 04:28:55;;;;;;;5.80;2.13;;;;;;;;;;6143737;23;20026;-62
2024/02/06 04:31:29;;;;;;;7.22;2.55;;;;;;;;;;6143460;23;20135;-58
2024/02/06 04:33:57;;;;;;;10.20;2.42;;;;;;;;;;6143038;23;20045;-61
2024/02/06 04:36:31;;;;;;;6.95;2.28;;;;;;;;;;6141983;23;20272;-61
2024/02/06 04:39:01;;;;;;;7.80;2.75;;;;;;;;;;6144349;23;20033;-61
2024/02/06 04:41:28;;;;;;;13.27;2.60;;;;;;;;;;6143551;23;20112;-61
2024/02/06 04:44:02;;;;;;;7.43;2.03;;;;;;;;;;6143371;23;20025;-61
2024/02/06 04:46:30;;;;;;;;;;;;;;;;;;6142425;23;20337;-61
2024/02/06 04:49:04;;;;;;;12.50;2.55;;;;;;;;;;6143513;23;19992;-62
2024/02/06 04:51:33;;;;;;;;;;;;;;;;;;6145859;23;20021;-61
2024/02/06 04:54:00;;;;;;;9.25;2.63;;;;;;;;;;6144074;23;19916;-62
2024/02/06 04:56:34;;;;;;;10.95;2.47;;;;;;;;;;6143805;23;20021;-63
2024/02/06 04:59:02;;;;;;;6.82;2.30;;;;;;;;;;6142820;23;20084;-54
2024/02/06 05:01:36;;;;;;;6.40;2.13;;;;;;;;;;6145164;23;20029;-49
2024/02/06 05:04:03;;;;;;;11.07;2.42;;;;;;;;;;6143808;23;20029;-47
2024/02/06 05:06:31;;;;;;;;;;;;;;;;;;6147584;23;20518;-50
2024/02/06 05:09:05;;;;;;;11.80;2.83;;;;;;;;;;6147116;23;20298;-47
2024/02/06 05:11:32;;;;;;;;;;;;;;;;;;6146637;23;20018;-47
2024/02/06 05:14:06;;;;;;;7.47;2.40;;;;;;;;;;6144978;23;20302;-48
2024/02/06 05:16:34;;;;;;;;;;;;;;;;;;6145233;23;20025;-58
2024/02/06 05:19:01;;;;;;;14.13;3.13;;;;;;;;;;6144107;23;19980;-58
2024/02/06 05:21:35;;;;;;;8.70;2.67;;;;;;;;;;6145594;23;20084;-59
2024/02/06 05:24:02;;;;;;;8.45;3.00;;;;;;;;;;6144723;23;20029;-57
2024/02/06 05:26:36;;;;;;;6.72;2.60;;;;;;;;;;6144174;23;20032;-50
2024/02/06 05:29:03;;;;;;;;;;;;;;;;;;6143723;23;20396;-54
2024/02/06 05:31:31;;;;;;;9.68;2.42;;;;;;;;;;6142329;23;19975;-57
2024/02/06 05:34:04;;;;;;;8.68;2.40;;;;;;;;;;6142149;23;20051;-58
2024/02/06 05:36:31;;;;;;;;;;;;;;;;;;6144724;23;20101;-59
2024/02/06 05:38:58;;;;;;;10.55;3.00;;;;;;;;;;6145465;23;19947;-58
2024/02/06 05:41:33;;;;;;;15.60;3.53;;;;;;;;;;6144883;23;20032;-58
2024/02/06 05:44:00;;;;;;;13.40;3.83;;;;;;;;;;6143962;23;20025;-58
2024/02/06 05:46:34;;;;;;;8.25;2.92;;;;;;;;;;6144347;23;20056;-56
2024/02/06 05:49:01;;;;;;;;;;;;;;;;;;6144463;23;20499;-54
2024/02/06 05:51:28;;;;;;;10.80;2.97;;;;;;;;;;6146048;23;19917;-57
2024/02/06 05:54:02;;;;;;;9.05;2.60;;;;;;;;;;6142980;23;20021;-57
2024/02/06 05:56:29;;;;;;;;;;;;;;;;;;6145626;23;20395;-63
2024/02/06 05:58:57;;;;;;;6.55;2.28;;;;;;;;;;6143907;23;19928;-58
2024/02/06 06:01:31;;;;;;;14.82;3.08;;;;;;;;;;6143072;23;20057;-57
2024/02/06 06:03:59;;;;;;;13.63;3.20;;;;;;;;;;6141252;23;20022;-57
2024/02/06 06:06:27;;;;;;;8.20;2.90;;;;;;;;;;6147819;23;20026;-55
2024/02/06 06:09:00;;;;;;;7.07;2.72;;;;;;;;;;6145992;23;20131;-56
2024/02/06 06:11:27;;;;;;;8.40;3.20;;;;;;;;;;6147909;23;20022;-58
2024/02/06 06:14:01;;;;;;;10.43;2.80;;;;;;;;;;6146552;23;20045;-57
2024/02/06 06:16:28;;;;;;;11.50;3.03;;;;;;;;;;6146362;23;20021;-56
2024/02/06 06:18:56;;;;;;;8.50;2.72;;;;;;;;;;6146407;23;20116;-58
2024/02/06 06:21:29;;;;;;;17.15;4.85;;;;;;;;;;6147597;23;20368;-56
2024/02/06 06:23:56;;;;;;;;;;;;;;;;;;6147859;23;20084;-50
2024/02/06 06:26:24;;;;;;;10.15;2.78;;;;;;;;;;6147373;23;20398;-60
2024/02/06 06:28:58;;;;;;;8.73;3.00;;;;;;;;;;6145205;23;20033;-63
2024/02/06 06:31:25;;;;;;;;;;;;;;;;;;6147300;23;20049;-62
2024/02/06 06:33:59;;;;;;;8.10;2.97;;;;;;;;;;6147012;23;20457;-63
2024/02/06 06:36:26;;;;;;;17.60;3.45;;;;;;;;;;6147425;23;20060;-62
2024/02/06 06:38:55;;;;;;;11.15;2.63;;;;;;;;;;6146126;23;20028;-62
2024/02/06 06:41:29;;;;;;;11.63;2.90;;;;;;;;;;6147399;23;20092;-62
2024/02/06 06:43:57;;;;;;;9.40;2.92;;;;;;;;;;6145550;23;20025;-61
2024/02/06 06:46:31;;;;;;;12.00;2.97;;;;;;;;;;6146139;23;20084;-61
2024/02/06 06:48:58;;;;;;;;;;;;;;;;;;6147928;23;20058;-61
2024/02/06 06:51:25;;;;;;;14.35;2.78;;;;;;;;;;6148161;23;20695;-61
2024/02/06 06:53:59;;;;;;;9.43;2.88;;;;;;;;;;6145613;23;20025;-62
2024/02/06 06:56:27;;;;;;;6.28;2.33;;;;;;;;;;6146848;23;20029;-53
2024/02/06 06:59:01;;;;;;;9.77;2.85;;;;;;;;;;6146250;23;20096;-53
2024/02/06 07:01:28;;;;;;;7.55;2.75;;;;;;;;;;6146468;23;20029;-49
2024/02/06 07:04:02;;;;;;;8.40;3.00;;;;;;;;;;6146427;23;20435;-49
2024/02/06 07:06:31;;;;;;;9.45;3.60;;;;;;;;;;6147020;23;20173;-51
2024/02/06 07:09:04;;;;;;;10.98;3.35;;;;;;;;;;6121975;23;20072;-52
2024/02/06 07:11:38;;;;;;;12.40;3.17;;;;;;;;;;6121907;23;20044;-64
2024/02/06 07:14:05;;;;;;;13.15;3.15;;;;;;;;;;6145318;23;20080;-62
2024/02/06 07:16:32;;;;;;;12.23;3.25;;;;;;;;;;6146759;23;20076;-62
2024/02/06 07:19:13;;;;;;;10.45;3.10;;;;;;;;;;6146306;23;20792;-62
2024/02/06 07:21:40;;;;;;;5.45;2.85;;;;;;;;;;6146840;23;20397;-56
2024/02/06 07:24:14;;;;;;;10.68;3.13;;;;;;;;;;6146026;23;20073;-58
2024/02/06 07:26:41;;;;;;;;;;;;;;;;;;6146523;23;20088;-54
2024/02/06 07:29:08;;;;;;;12.85;2.92;;;;;;;;;;6145372;23;19920;-58
2024/02/06 07:31:42;;;;;;;11.95;3.50;;;;;;;;;;6145672;23;20033;-57
2024/02/06 07:34:09;;;;;;;;;;;;;;;;;;6146424;23;20028;-57
2024/02/06 07:36:36;;;;;;;9.10;3.10;;;;;;;;;;6147286;23;19927;-55
2024/02/06 07:39:10;;;;;;;10.73;2.97;;;;;;;;;;6146520;23;20025;-61
2024/02/06 07:41:38;;;;;;;7.93;3.15;;;;;;;;;;6145719;23;20341;-61
2024/02/06 07:44:12;;;;;;;10.27;2.78;;;;;;;;;;6144994;23;20445;-61
2024/02/06 07:46:39;;;;;;;8.88;2.42;;;;;;;;;;6145153;23;20059;-61
2024/02/06 07:49:06;;;;;;;;;;;;;;;;;;6147387;23;20030;-61
2024/02/06 07:51:41;;;;;;;12.10;2.85;;;;;;;;;;6147398;23;19921;-51
2024/02/06 07:54:09;;;;;;;11.40;3.13;;;;;;;;;;6145450;23;20513;-51
2024/02/06 07:56:43;;;;;;;13.65;3.42;;;;;;;;;;6145790;23;20475;-51
2024/02/06 07:59:13;;;;;;;6.55;2.63;;;;;;;;;;6146008;23;20033;-52
2024/02/06 08:01:40;;;;;;;11.35;2.55;;;;;;;;;;6144310;23;20061;-50
2024/02/06 08:04:14;;;;;;;9.13;2.78;;;;;;;;;;6145641;23;20032;-53
2024/02/06 08:06:42;;;;;;;13.48;3.08;;;;;;;;;;6145133;23;20028;-53
2024/02/06 08:09:18;;;;;;;8.95;2.80;;;;;;;;;;6146477;23;20025;-58
2024/02/06 08:11:45;;;;;;;6.13;2.50;;;;;;;;;;6118945;23;20025;-59
2024/02/06 08:14:13;;;;;;;15.18;3.08;;;;;;;;;;6143738;23;20091;-58
2024/02/06 08:16:47;;;;;;;11.10;2.50;;;;;;;;;;6145300;23;20034;-57
2024/02/06 08:19:21;;;;;;;8.13;2.47;;;;;;;;;;6145223;23;20471;-57
2024/02/06 08:21:55;;;;;;;8.45;2.30;;;;;;;;;;6122572;23;20026;-58
2024/02/06 08:24:22;;;;;;;7.03;2.60;;;;;;;;;;6146502;23;20025;-57
2024/02/06 08:26:49;;;;;;;10.18;2.67;;;;;;;;;;6145033;23;20023;-59
2024/02/06 08:29:24;;;;;;;10.50;3.17;;;;;;;;;;6144692;23;20380;-58
2024/02/06 08:31:51;;;;;;;3.53;1.80;;;;;;;;;;6145456;23;20451;-59
2024/02/06 08:34:25;;;;;;;13.15;2.47;;;;;;;;;;6144901;23;20076;-59
2024/02/06 08:36:52;;;;;;;;;;;;;;;;;;6146542;23;20037;-60
2024/02/06 08:39:20;;;;;;;13.05;2.67;;;;;;;;;;6145611;23;20346;-60
2024/02/06 08:41:53;;;;;;;8.00;2.67;;;;;;;;;;6144518;23;20111;-61
2024/02/06 08:44:20;;;;;;;;;;;;;;;;;;6145120;23;20025;-60
2024/02/06 08:46:48;;;;;;;9.88;2.65;;;;;;;;;;6145259;23;19927;-60
2024/02/06 08:49:21;;;;;;;9.35;2.70;;;;;;;;;;6145523;23;20475;-53
2024/02/06 08:51:50;;;;;;;;;;;;;;;;;;6147896;23;20032;-54
2024/02/06 08:54:24;;;;;;;8.35;2.80;;;;;;;;;;6145419;23;20027;-48
2024/02/06 08:56:52;;;;;;;15.57;2.90;;;;;;;;;;6143454;23;20025;-52
2024/02/06 08:59:26;;;;;;;9.10;2.60;;;;;;;;;;6145584;23;20297;-54
2024/02/06 09:01:53;;;;;;;6.60;2.53;;;;;;;;;;6145053;23;20088;-50
2024/02/06 09:04:21;;;;;;;;;;;;;;;;;;6145916;23;20030;-57
2024/02/06 09:06:55;;;;;;;5.30;2.25;;;;;;;;;;6147068;23;19932;-57
2024/02/06 09:09:23;;;;;;;5.82;2.05;;;;;;;;;;6145959;23;20025;-57
2024/02/06 09:11:52;;;;;;;11.02;2.10;;;;;;;;;;6144479;23;20053;-58
2024/02/06 09:14:26;;;;;;;8.30;2.63;;;;;;;;;;6143680;23;20431;-61
2024/02/06 09:16:53;;;;;;;5.90;1.80;;;;;;;;;;6144755;23;20061;-51
2024/02/06 09:19:21;;;;;;;;;;;;;;;;;;6145399;23;20092;-56
2024/02/06 09:22:02;;;;;;;6.35;1.70;;;;;;;;;;6149435;23;19994;-57
2024/02/06 09:24:29;;;;;;;8.77;2.28;;;;;;;;;;6147234;23;20025;-56
2024/02/06 09:27:03;;;;;;;11.48;2.40;;;;;;;;;;6146974;23;20037;-52
2024/02/06 09:29:31;;;;;;;8.35;2.55;;;;;;;;;;6146705;23;20029;-57
2024/02/06 09:32:05;;;;;;;8.25;1.67;;;;;;;;;;6148548;23;20025;-52
2024/02/06 09:34:39;;;;;;;8.38;2.22;;;;;;;;;;6146893;23;20026;-55
2024/02/06 09:37:06;;;;;;;;;;;;;;;;;;6148702;23;20021;-56
2024/02/06 09:39:34;;;;;;;8.88;1.90;;;;;;;;;;6146856;23;20724;-58
2024/02/06 09:42:07;;;;;;;12.80;2.03;;;;;;;;;;6146747;23;20025;-58
2024/02/06 09:44:34;;;;;;;;;;;;;;;;;;6146176;23;20529;-61
2024/02/06 09:47:02;;;;;;;6.28;2.15;;;;;;;;;;6147722;23;20007;-61
2024/02/06 09:49:37;;;;;;;4.32;1.35;;;;;;;;;;6146394;23;20032;-62
2024/02/06 09:52:11;;;;;;;6.28;1.73;;;;;;;;;;6148683;23;20052;-61
2024/02/06 09:54:43;;;;;;;5.75;1.80;;;;;;;;;;6146165;23;20036;-62
2024/02/06 09:57:11;;;;;;;4.63;1.50;;;;;;;;;;6146857;23;20510;-62
2024/02/06 09:59:46;;;;;;;6.32;1.83;;;;;;;;;;6146927;23;20025;-61
2024/02/06 10:02:13;;;;;;;3.90;1.90;;;;;;;;;;6146584;23;20030;-57
2024/02/06 10:04:40;;;;;;;;;;;;;;;;;;6147254;23;20101;-58
2024/02/06 10:07:14;;;;;;;4.63;1.65;;;;;;;;;;6147216;23;19974;-56
2024/02/06 10:09:44;;;;;;;2.80;1.45;;;;;;;;;;6146975;23;20543;-57
2024/02/06 10:12:18;;;;;;;6.10;2.42;;;;;;;;;;6146094;23;20453;-63
2024/02/06 10:14:45;;;;;;;6.70;1.30;;;;;;;;;;6146788;23;20026;-50
2024/02/06 10:17:14;;;;;;;8.02;2.08;;;;;;;;;;6146186;23;20033;-50
2024/02/06 10:20:04;;;;;;;4.32;1.30;;;;;;;;;;6145719;23;20034;-52
2024/02/06 10:22:32;;;;;;;12.43;2.38;;;;;;;;;;6148541;23;20029;-50
2024/02/06 10:25:08;;;;;;;6.40;1.80;;;;;;;;;;6146624;23;20116;-52
2024/02/06 10:27:35;;;;;;;5.82;2.00;;;;;;;;;;6146101;23;20051;-49
2024/02/06 10:30:12;;;;;;;9.27;1.90;;;;;;;;;;6147246;23;20025;-54
2024/02/06 10:32:39;;;;;;;4.60;1.63;;;;;;;;;;6145860;23;20028;-49
2024/02/06 10:35:13;;;;;;;3.83;1.55;;;;;;;;;;6144681;23;20373;-50
2024/02/06 10:37:47;;;;;;;2.90;1.60;;;;;;;;;;6145598;23;20025;-54
2024/02/06 10:40:15;;;;;;;6.63;1.75;;;;;;;;;;6146574;23;20096;-54
2024/02/06 10:42:42;;;;;;;;;;;;;;;;;;6147525;23;20039;-49
2024/02/06 10:45:36;;;;;;;3.90;1.35;;;;;;;;;;6147259;23;20407;-52
2024/02/06 10:48:10;;;;;;;4.28;1.33;;;;;;;;;;6145734;23;20433;-52
2024/02/06 10:50:37;;;;;;;5.78;1.45;;;;;;;;;;6146513;23;20037;-53
2024/02/06 10:53:06;;;;;;;4.40;1.63;;;;;;;;;;6145934;23;20051;-50
2024/02/06 10:55:39;;;;;;;4.05;1.25;;;;;;;;;;6146090;23;20025;-53
2024/02/06 10:58:08;;;;;;;4.40;1.50;;;;;;;;;;6148555;23;20022;-63
2024/02/06 11:00:36;;;;;;;6.53;1.73;;;;;;;;;;6145918;23;20057;-62
2024/02/06 11:03:12;;;;;;;3.50;1.30;;;;;;;;;;6146181;23;20204;-63
2024/02/06 11:05:43;;;;;;;6.75;1.45;;;;;;;;;;6145336;23;20025;-63
2024/02/06 11:08:19;;;;;;;4.35;1.65;;;;;;;;;;6145251;23;20021;-62
2024/02/06 11:10:48;;;;;;;8.18;1.40;;;;;;;;;;6146549;23;20040;-63
2024/02/06 11:13:26;;;;;;;6.35;1.33;;;;;;;;;;6147563;23;20025;-61
2024/02/06 11:15:54;;;;;;;2.40;1.23;;;;;;;;;;6145992;23;20075;-61
2024/02/06 11:18:36;;;;;;;4.93;1.55;;;;;;;;;;6114174;23;20033;-62
2024/02/06 11:21:10;;;;;;;5.53;1.27;;;;;;;;;;6117024;23;20022;-62
2024/02/06 11:23:45;;;;;;;4.57;1.40;;;;;;;;;;6114685;23;20030;-62
2024/02/06 11:26:19;;;;;;;5.10;1.10;;;;;;;;;;6116788;23;20034;-61
2024/02/06 11:28:53;;;;;;;3.38;0.95;;;;;;;;;;6115769;23;20097;-61
2024/02/06 11:31:23;;;;;;;10.45;1.52;;;;;;;;;;6118014;23;20471;-61
2024/02/06 11:33:50;;;;;;;1.95;1.05;;;;;;;;;;6116648;23;20029;-60
2024/02/06 11:36:24;;;;;;;6.93;1.02;;;;;;;;;;6115503;23;20025;-57
2024/02/06 11:38:53;;;;;;;3.67;1.20;;;;;;;;;;6115479;23;20030;-61
2024/02/06 11:41:26;;;;;;;3.42;1.20;;;;;;;;;;6115854;23;20133;-60
2024/02/06 11:43:53;;;;;;;;;;;;;;;;;;6117001;23;20364;-60
2024/02/06 11:46:23;;;;;;;2.50;1.15;;;;;;;;;;6116818;23;19981;-60
2024/02/06 11:49:05;;;;;;;6.38;1.25;;;;;;;;;;6116413;23;20093;-60
2024/02/06 11:51:33;;;;;;;8.57;1.60;;;;;;;;;;6115909;23;20022;-61
2024/02/06 11:54:11;;;;;;;9.38;1.33;;;;;;;;;;6115091;23;20026;-60
2024/02/06 11:56:39;;;;;;;7.45;1.23;;;;;;;;;;6115707;23;20456;-56
2024/02/06 11:59:07;;;;;;;2.92;1.02;;;;;;;;;;6115756;23;20022;-56
2024/02/06 12:01:41;;;;;;;2.85;1.48;;;;;;;;;;6116199;23;20815;-56
2024/02/06 12:04:11;;;;;;;6.60;1.50;;;;;;;;;;6116980;23;20057;-56
2024/02/06 12:06:45;;;;;;;11.00;1.80;;;;;;;;;;6115808;23;20028;-63
2024/02/06 12:09:14;;;;;;;8.85;2.25;;;;;;;;;;6115308;23;20032;-49
2024/02/06 12:11:43;;;;;;;6.32;1.38;;;;;;;;;;6115931;23;20358;-53
2024/02/06 12:14:17;;;;;;;4.82;1.40;;;;;;;;;;6115251;23;20026;-53
2024/02/06 12:16:45;;;;;;;4.03;1.90;;;;;;;;;;6115973;23;20509;-49
2024/02/06 12:19:30;;;;;;;4.85;1.30;;;;;;;;;;6134847;23;20336;-51
2024/02/06 12:22:01;;;;;;;17.90;1.75;;;;;;;;;;6133985;23;20487;-54
2024/02/06 12:24:35;;;;;;;2.90;1.40;;;;;;;;;;6145292;23;20018;-60
2024/02/06 12:27:05;;;;;;;10.27;0.60;;;;;;;;;;6145005;23;20534;-60
2024/02/06 12:29:39;;;;;;;13.57;1.90;;;;;;;;;;6144686;23;20025;-60
2024/02/06 12:32:15;;;;;;;4.60;1.42;;;;;;;;;;6145474;23;20030;-60
2024/02/06 12:34:42;;;;;;;7.00;1.70;;;;;;;;;;6146468;23;20478;-58
2024/02/06 12:37:16;;;;;;;10.00;1.92;;;;;;;;;;6146583;23;20026;-61
2024/02/06 12:39:43;;;;;;;4.35;1.40;;;;;;;;;;6144907;23;20028;-62
2024/02/06 12:42:11;;;;;;;10.50;1.60;;;;;;;;;;6144834;23;20422;-62
2024/02/06 12:44:46;;;;;;;6.32;1.45;;;;;;;;;;6144325;23;20526;-62
2024/02/06 12:47:18;;;;;;;8.38;1.33;;;;;;;;;;6145942;23;20025;-61
2024/02/06 12:49:45;;;;;;;6.00;1.90;;;;;;;;;;6146121;23;20025;-62
2024/02/06 12:52:19;;;;;;;10.60;1.85;;;;;;;;;;6146485;23;20021;-57
2024/02/06 12:54:47;;;;;;;9.05;1.75;;;;;;;;;;6143694;23;20029;-58
2024/02/06 12:57:22;;;;;;;11.07;1.90;;;;;;;;;;6144095;23;20029;-57
2024/02/06 12:59:49;;;;;;;9.10;1.77;;;;;;;;;;6144163;23;20026;-57
2024/02/06 13:02:17;;;;;;;12.50;2.00;;;;;;;;;;6143945;23;20474;-63
2024/02/06 13:04:50;;;;;;;10.77;2.35;;;;;;;;;;6146833;23;20686;-50
2024/02/06 13:07:19;;;;;;;;;;;;;;;;;;6145138;23;20025;-62
2024/02/06 13:10:07;;;;;;;7.32;1.65;;;;;;;;;;6145051;23;20243;-61
2024/02/06 13:12:35;;;;;;;7.20;1.52;;;;;;;;;;6145475;23;20089;-61
2024/02/06 13:15:10;;;;;;;4.72;1.52;;;;;;;;;;6144508;23;20022;-62
2024/02/06 13:17:38;;;;;;;2.05;1.02;;;;;;;;;;6144458;23;20029;-62
2024/02/06 13:20:08;;;;;;;11.32;2.03;;;;;;;;;;6115451;23;20022;-64
2024/02/06 13:22:42;;;;;;;6.95;1.65;;;;;;;;;;6116799;23;20101;-64
2024/02/06 13:25:10;;;;;;;;;;;;;;;;;;6116588;23;20032;-63
2024/02/06 13:27:44;;;;;;;10.50;2.08;;;;;;;;;;6115081;23;20003;-63
2024/02/06 13:30:12;;;;;;;9.07;1.77;;;;;;;;;;6114182;23;20045;-52
2024/02/06 13:32:46;;;;;;;5.13;1.20;;;;;;;;;;6115587;23;20073;-57
2024/02/06 13:35:14;;;;;;;4.03;1.08;;;;;;;;;;6113727;23;20134;-58
2024/02/06 13:38:08;;;;;;;4.80;1.45;;;;;;;;;;6115393;23;20073;-57
2024/02/06 13:40:54;;;;;;;10.32;1.63;;;;;;;;;;6116129;23;20022;-58
2024/02/06 13:43:48;;;;;;;9.35;1.67;;;;;;;;;;6116774;23;20052;-56
2024/02/06 13:46:36;;;;;;;9.57;2.20;;;;;;;;;;6116092;23;20097;-57
2024/02/06 13:49:31;;;;;;;10.95;1.65;;;;;;;;;;6115866;23;20033;-61
2024/02/06 13:52:17;;;;;;;6.30;1.20;;;;;;;;;;6115713;23;20428;-61
2024/02/06 13:55:11;;;;;;;9.57;1.85;;;;;;;;;;6115413;23;20053;-61
2024/02/06 13:57:59;;;;;;;6.57;1.90;;;;;;;;;;6115011;23;20105;-62
2024/02/06 14:00:54;;;;;;;7.55;1.63;;;;;;;;;;6114400;23;20040;-61
2024/02/06 14:03:40;;;;;;;8.52;1.77;;;;;;;;;;6114526;23;20024;-61
2024/02/06 14:06:34;;;;;;;5.90;1.67;;;;;;;;;;6115634;23;20113;-62
2024/02/06 14:09:21;;;;;;;10.05;2.00;;;;;;;;;;6117106;23;20026;-62
2024/02/06 14:12:16;;;;;;;11.05;1.92;;;;;;;;;;6117194;23;20480;-62
2024/02/06 14:15:16;;;;;;;4.93;1.58;;;;;;;;;;6116215;23;20030;-62
2024/02/06 14:18:23;;;;;;;9.68;1.48;;;;;;;;;;6118754;23;20025;-66
2024/02/06 14:21:17;;;;;;;4.60;1.50;;;;;;;;;;6117757;23;20022;-66
2024/02/06 14:24:11;;;;;;;6.82;1.73;;;;;;;;;;6116882;23;20590;-64
2024/02/06 14:26:58;;;;;;;6.65;1.60;;;;;;;;;;6115387;23;20022;-61
2024/02/06 14:29:52;;;;;;;8.20;2.30;;;;;;;;;;6115846;23;20538;-60
2024/02/06 14:32:46;;;;;;;9.60;1.42;;;;;;;;;;6115769;23;20116;-58
2024/02/06 14:35:34;;;;;;;7.95;2.28;;;;;;;;;;6114983;23;20085;-59
2024/02/06 14:38:27;;;;;;;8.93;2.08;;;;;;;;;;6117217;23;20471;-59
2024/02/06 14:41:21;;;;;;;4.00;1.45;;;;;;;;;;6118578;23;20136;-59
2024/02/06 14:44:15;;;;;;;9.98;2.05;;;;;;;;;;6117229;23;20113;-58
2024/02/06 14:47:17;;;;;;;11.13;2.00;;;;;;;;;;6117590;23;20101;-61
2024/02/06 14:50:10;;;;;;;7.80;1.83;;;;;;;;;;6116986;23;20028;-61
2024/02/06 14:52:57;;;;;;;9.23;1.90;;;;;;;;;;6117036;23;20069;-62
2024/02/06 14:55:51;;;;;;;12.00;2.63;;;;;;;;;;6117232;23;20049;-58
2024/02/06 14:58:38;;;;;;;6.78;2.00;;;;;;;;;;6116405;23;20034;-60
2024/02/06 15:01:32;;;;;;;8.10;2.35;;;;;;;;;;6117889;23;20022;-61
2024/02/06 15:04:26;;;;;;;7.72;1.80;;;;;;;;;;6116901;23;20121;-61
2024/02/06 15:07:15;;;;;;;9.82;2.08;;;;;;;;;;6115723;23;20022;-61
2024/02/06 15:10:08;;;;;;;5.20;1.90;;;;;;;;;;6115080;23;20113;-58
2024/02/06 15:12:55;;;;;;;6.88;1.73;;;;;;;;;;6115584;23;20025;-60
2024/02/06 15:15:49;;;;;;;10.35;1.50;;;;;;;;;;6116264;23;20021;-62
2024/02/06 15:18:43;;;;;;;4.88;1.90;;;;;;;;;;6121045;23;20439;-62
2024/02/06 15:21:43;;;;;;;6.75;1.70;;;;;;;;;;6145778;23;20029;-62
2024/02/06 15:24:30;;;;;;;6.78;1.98;;;;;;;;;;6144683;23;20021;-55
2024/02/06 15:27:24;;;;;;;8.23;2.00;;;;;;;;;;6145746;23;20033;-62